createdAt,value
2023-04-12T00:00:11.479Z,9.50
2023-04-12T00:02:39.475Z,9.48
2023-04-12T00:05:06.515Z,9.41
2023-04-12T00:07:33.087Z,9.43
2023-04-12T00:09:59.585Z,9.37
2023-04-12T00:12:26.036Z,9.36
2023-04-12T00:14:52.573Z,9.29
2023-04-12T00:17:19.451Z,9.24
2023-04-12T00:19:47.640Z,9.23
2023-04-12T00:22:15.761Z,9.19
2023-04-12T00:24:42.158Z,9.15
2023-04-12T00:27:08.907Z,9.10
2023-04-12T00:29:35.481Z,9.05
2023-04-12T00:32:03.786Z,9.03
2023-04-12T00:34:30.352Z,9.03
2023-04-12T00:36:56.789Z,9.01
2023-04-12T00:39:23.425Z,8.96
2023-04-12T00:41:49.908Z,8.94
2023-04-12T00:44:18.042Z,8.92
2023-04-12T00:46:46.489Z,8.86
2023-04-12T00:49:13.432Z,8.92
2023-04-12T00:51:40.399Z,8.90
2023-04-12T00:54:07.373Z,8.86
2023-04-12T00:56:34.593Z,8.88
2023-04-12T00:59:02.106Z,8.92
2023-04-12T01:01:28.626Z,8.83
2023-04-12T01:04:01.005Z,8.76
2023-04-12T01:06:57.614Z,8.72
2023-04-12T01:09:43.878Z,8.75
2023-04-12T01:12:39.395Z,8.68
2023-04-12T01:15:09.616Z,8.70
2023-04-12T01:17:47.735Z,8.69
2023-04-12T01:20:25.075Z,8.65
2023-04-12T01:22:57.533Z,8.64
2023-04-12T01:25:39.429Z,8.66
2023-04-12T01:28:08.957Z,8.69
2023-04-12T01:30:37.002Z,8.66
2023-04-12T01:33:06.620Z,8.60
2023-04-12T01:35:35.118Z,8.62
2023-04-12T01:38:03.172Z,8.63
2023-04-12T01:40:30.755Z,8.60
2023-04-12T01:43:10.685Z,8.60
2023-04-12T01:45:37.961Z,8.60
2023-04-12T01:48:07.492Z,8.63
2023-04-12T01:50:41.970Z,8.59
2023-04-12T01:53:13.338Z,8.51
2023-04-12T01:55:45.824Z,8.47
2023-04-12T01:58:13.786Z,8.48
2023-04-12T02:00:42.658Z,8.48
2023-04-12T02:03:09.754Z,8.48
2023-04-12T02:05:36.672Z,8.51
2023-04-12T02:08:04.075Z,8.47
2023-04-12T02:10:31.626Z,8.47
2023-04-12T02:13:00.117Z,8.50
2023-04-12T02:15:28.457Z,8.54
2023-04-12T02:17:55.171Z,8.47
2023-04-12T02:20:24.080Z,8.41
2023-04-12T02:22:52.083Z,8.42
2023-04-12T02:25:20.106Z,8.43
2023-04-12T02:27:46.717Z,8.41
2023-04-12T02:30:13.697Z,8.42
2023-04-12T02:32:46.139Z,8.46
2023-04-12T02:35:14.266Z,8.49
2023-04-12T02:37:41.172Z,8.51
2023-04-12T02:40:10.318Z,8.48
2023-04-12T02:42:37.086Z,8.45
2023-04-12T02:45:04.654Z,8.47
2023-04-12T02:47:31.053Z,8.49
2023-04-12T02:49:57.672Z,8.46
2023-04-12T02:52:24.138Z,8.50
2023-04-12T02:54:51.486Z,8.49
2023-04-12T02:57:18.082Z,8.51
2023-04-12T02:59:44.449Z,8.51
2023-04-12T03:02:11.528Z,8.44
2023-04-12T03:04:39.933Z,8.38
2023-04-12T03:07:06.772Z,8.37
2023-04-12T03:09:33.251Z,8.42
2023-04-12T03:11:59.618Z,8.36
2023-04-12T03:14:26.016Z,8.37
2023-04-12T03:16:53.602Z,8.36
2023-04-12T03:19:20.242Z,8.33
2023-04-12T03:21:46.629Z,8.34
2023-04-12T03:24:13.807Z,8.35
2023-04-12T03:26:41.662Z,8.34
2023-04-12T03:29:10.118Z,8.32
2023-04-12T03:31:37.918Z,8.32
2023-04-12T03:34:04.461Z,8.29
2023-04-12T03:36:31.265Z,8.26
2023-04-12T03:38:57.682Z,8.22
2023-04-12T03:41:24.061Z,8.22
2023-04-12T03:43:50.707Z,8.26
2023-04-12T03:46:17.277Z,8.26
2023-04-12T03:48:43.780Z,8.24
2023-04-12T03:51:12.035Z,8.21
2023-04-12T03:53:39.189Z,8.22
2023-04-12T03:56:06.263Z,8.21
2023-04-12T03:58:33.928Z,8.22
2023-04-12T04:01:06.015Z,8.20
2023-04-12T04:03:35.206Z,8.19
2023-04-12T04:06:02.430Z,8.19
2023-04-12T04:08:29.589Z,8.16
2023-04-12T04:10:57.129Z,8.18
2023-04-12T04:13:23.526Z,8.17
2023-04-12T04:15:58.874Z,8.15
2023-04-12T04:18:25.350Z,8.17
2023-04-12T04:20:52.103Z,8.15
2023-04-12T04:23:18.473Z,8.13
2023-04-12T04:25:45.364Z,8.19
2023-04-12T04:28:11.788Z,8.17
2023-04-12T04:30:38.809Z,8.13
2023-04-12T04:33:05.643Z,8.12
2023-04-12T04:35:32.283Z,8.12
2023-04-12T04:37:58.841Z,8.10
2023-04-12T04:40:25.597Z,8.08
2023-04-12T04:42:55.090Z,8.10
2023-04-12T04:45:28.616Z,8.11
2023-04-12T04:47:55.991Z,8.12
2023-04-12T04:50:26.579Z,8.14
2023-04-12T04:52:53.367Z,8.16
2023-04-12T04:55:24.654Z,8.20
2023-04-12T04:57:51.139Z,8.20
2023-04-12T05:00:18.106Z,8.16
2023-04-12T05:02:45.723Z,8.16
2023-04-12T05:05:13.779Z,8.17
2023-04-12T05:07:40.624Z,8.15
2023-04-12T05:10:07.788Z,8.17
2023-04-12T05:12:34.143Z,8.19
2023-04-12T05:15:11.234Z,8.19
2023-04-12T05:17:38.640Z,8.19
2023-04-12T05:20:07.902Z,8.21
2023-04-12T05:22:35.235Z,8.26
2023-04-12T05:25:02.984Z,8.27
2023-04-12T05:27:30.491Z,8.22
2023-04-12T05:29:57.724Z,8.21
2023-04-12T05:32:25.072Z,8.21
2023-04-12T05:34:52.280Z,8.22
2023-04-12T05:37:18.717Z,8.25
2023-04-12T05:39:45.104Z,8.24
2023-04-12T05:42:11.563Z,8.28
2023-04-12T05:44:38.943Z,8.32
2023-04-12T05:47:05.745Z,8.33
2023-04-12T05:49:32.258Z,8.35
2023-04-12T05:51:58.798Z,8.34
2023-04-12T05:54:25.449Z,8.36
2023-04-12T05:56:54.393Z,8.35
2023-04-12T05:59:21.132Z,8.37
2023-04-12T06:01:47.716Z,8.38
2023-04-12T06:04:14.923Z,8.34
2023-04-12T06:06:41.607Z,8.34
2023-04-12T06:09:08.013Z,8.39
2023-04-12T06:11:34.364Z,8.42
2023-04-12T06:14:01.232Z,8.45
2023-04-12T06:16:27.889Z,8.50
2023-04-12T06:18:54.309Z,8.51
2023-04-12T06:21:20.892Z,8.51
2023-04-12T06:23:47.316Z,8.49
2023-04-12T06:26:13.770Z,8.51
2023-04-12T06:28:40.311Z,8.53
2023-04-12T06:31:07.227Z,8.56
2023-04-12T06:33:33.728Z,8.58
2023-04-12T06:36:00.984Z,8.62
2023-04-12T06:38:27.423Z,8.65
2023-04-12T06:40:53.886Z,8.68
2023-04-12T06:43:23.435Z,8.69
2023-04-12T06:45:51.071Z,8.70
2023-04-12T06:48:17.801Z,8.71
2023-04-12T06:50:47.165Z,8.72
2023-04-12T06:53:13.670Z,8.74
2023-04-12T06:55:40.707Z,8.77
2023-04-12T06:58:07.078Z,8.77
2023-04-12T07:00:33.712Z,8.83
2023-04-12T07:03:00.187Z,8.85
2023-04-12T07:05:26.910Z,8.89
2023-04-12T07:07:53.283Z,8.93
2023-04-12T07:10:19.667Z,8.96
2023-04-12T07:12:46.742Z,8.93
2023-04-12T07:15:13.154Z,8.94
2023-04-12T07:17:39.639Z,8.95
2023-04-12T07:20:06.972Z,8.98
2023-04-12T07:22:33.443Z,9.01
2023-04-12T07:24:59.887Z,9.02
2023-04-12T07:27:26.477Z,9.04
2023-04-12T07:29:55.951Z,9.07
2023-04-12T07:32:22.909Z,9.09
2023-04-12T07:34:49.388Z,9.07
2023-04-12T07:37:17.802Z,9.09
2023-04-12T07:39:44.390Z,9.13
2023-04-12T07:42:10.734Z,9.16
2023-04-12T07:44:38.793Z,9.20
2023-04-12T07:47:05.577Z,9.20
2023-04-12T07:49:31.980Z,9.21
2023-04-12T07:51:58.522Z,9.22
2023-04-12T07:54:27.852Z,9.25
2023-04-12T07:57:02.558Z,9.30
2023-04-12T07:59:30.642Z,9.34
2023-04-12T08:01:57.208Z,9.36
2023-04-12T08:04:24.144Z,9.40
2023-04-12T08:06:50.853Z,9.44
2023-04-12T08:09:17.218Z,9.48
2023-04-12T08:11:43.565Z,9.50
2023-04-12T08:14:10.572Z,9.53
2023-04-12T08:16:37.005Z,9.58
2023-04-12T08:19:03.385Z,9.67
2023-04-12T08:21:30.770Z,9.75
2023-04-12T08:23:57.408Z,9.87
2023-04-12T08:26:24.029Z,10.07
2023-04-12T08:28:50.395Z,10.25
2023-04-12T08:31:17.790Z,10.52
2023-04-12T08:33:44.421Z,10.62
2023-04-12T08:36:11.160Z,10.63
2023-04-12T08:38:45.739Z,10.66
2023-04-12T08:41:14.273Z,10.68
2023-04-12T08:43:44.350Z,10.62
2023-04-12T08:46:12.740Z,10.61
2023-04-12T08:48:40.571Z,10.63
2023-04-12T08:51:07.171Z,10.63
2023-04-12T08:53:33.553Z,10.66
2023-04-12T08:56:00.155Z,10.69
2023-04-12T08:58:27.025Z,10.63
2023-04-12T09:00:53.560Z,10.68
2023-04-12T09:03:20.147Z,10.72
2023-04-12T09:05:46.660Z,10.77
2023-04-12T09:08:13.275Z,10.86
2023-04-12T09:10:39.715Z,10.86
2023-04-12T09:13:06.510Z,10.87
2023-04-12T09:15:36.292Z,10.90
2023-04-12T09:18:09.396Z,10.93
2023-04-12T09:20:36.861Z,10.97
2023-04-12T09:23:26.570Z,11.11
2023-04-12T09:25:53.722Z,11.20
2023-04-12T09:28:21.750Z,11.20
2023-04-12T09:30:51.625Z,11.25
2023-04-12T09:33:22.971Z,11.27
2023-04-12T09:35:49.852Z,11.33
2023-04-12T09:38:16.516Z,11.34
2023-04-12T09:40:43.076Z,11.32
2023-04-12T09:43:09.676Z,11.31
2023-04-12T09:45:38.989Z,11.38
2023-04-12T09:48:07.042Z,11.42
2023-04-12T09:50:33.930Z,11.49
2023-04-12T09:53:02.339Z,11.51
2023-04-12T09:55:32.161Z,11.49
2023-04-12T09:58:04.181Z,11.49
2023-04-12T10:00:34.153Z,11.49
2023-04-12T10:03:01.355Z,11.49
2023-04-12T10:05:28.460Z,11.51
2023-04-12T10:07:55.603Z,11.54
2023-04-12T10:10:22.570Z,11.55
2023-04-12T10:12:49.758Z,11.58
2023-04-12T10:15:22.017Z,11.69
2023-04-12T10:17:54.057Z,11.78
2023-04-12T10:20:22.993Z,11.88
2023-04-12T10:22:52.595Z,11.97
2023-04-12T10:25:25.353Z,12.05
2023-04-12T10:27:51.912Z,12.10
2023-04-12T10:30:20.071Z,12.15
2023-04-12T10:32:47.147Z,12.13
2023-04-12T10:35:13.748Z,12.11
2023-04-12T10:38:02.971Z,12.17
2023-04-12T10:40:31.512Z,12.17
2023-04-12T10:43:22.846Z,12.14
2023-04-12T10:45:49.976Z,12.09
2023-04-12T10:48:29.830Z,12.02
2023-04-12T10:51:26.659Z,11.90
2023-04-12T10:53:54.501Z,11.74
2023-04-12T10:56:32.116Z,11.62
2023-04-12T10:59:04.100Z,11.49
2023-04-12T11:01:31.646Z,11.45
2023-04-12T11:04:15.195Z,11.40
2023-04-12T11:06:51.784Z,11.37
2023-04-12T11:09:25.330Z,11.42
2023-04-12T11:12:11.424Z,11.43
2023-04-12T11:14:46.597Z,11.37
2023-04-12T11:17:13.316Z,11.37
2023-04-12T11:19:42.112Z,11.41
2023-04-12T11:22:10.727Z,11.48
2023-04-12T11:24:48.442Z,11.59
2023-04-12T11:27:16.396Z,11.70
2023-04-12T11:29:43.636Z,11.76
2023-04-12T11:32:15.417Z,11.84
2023-04-12T11:34:44.270Z,11.88
2023-04-12T11:37:11.126Z,11.93
2023-04-12T11:39:45.088Z,11.96
2023-04-12T11:42:20.115Z,11.99
2023-04-12T11:44:57.691Z,12.03
2023-04-12T11:47:26.106Z,12.15
2023-04-12T11:49:57.834Z,12.15
2023-04-12T11:52:32.080Z,12.16
2023-04-12T11:55:06.393Z,12.14
2023-04-12T11:57:34.643Z,12.18
2023-04-12T12:00:02.007Z,12.25
2023-04-12T12:02:39.243Z,12.28
2023-04-12T12:05:11.329Z,12.28
2023-04-12T12:07:38.483Z,12.28
2023-04-12T12:10:06.645Z,12.25
2023-04-12T12:12:34.393Z,12.28
2023-04-12T12:15:02.060Z,12.51
2023-04-12T12:17:28.806Z,12.82
2023-04-12T12:19:59.288Z,13.14
2023-04-12T12:22:26.042Z,13.34
2023-04-12T12:24:56.588Z,13.46
2023-04-12T12:27:34.458Z,13.61
2023-04-12T12:30:04.310Z,13.64
2023-04-12T12:32:35.103Z,13.61
2023-04-12T12:35:13.939Z,13.69
2023-04-12T12:37:53.199Z,13.81
2023-04-12T12:40:32.666Z,13.87
2023-04-12T12:43:00.249Z,13.70
2023-04-12T12:45:36.444Z,13.53
2023-04-12T12:48:04.372Z,13.42
2023-04-12T12:50:33.926Z,13.36
2023-04-12T12:53:01.042Z,13.23
2023-04-12T12:55:29.084Z,13.07
2023-04-12T12:58:08.133Z,12.97
2023-04-12T13:00:45.985Z,12.89
2023-04-12T13:03:26.750Z,12.78
2023-04-12T13:05:53.418Z,12.75
2023-04-12T13:08:35.086Z,12.65
2023-04-12T13:11:06.933Z,12.63
2023-04-12T13:13:33.339Z,12.66
2023-04-12T13:15:59.812Z,12.67
2023-04-12T13:18:27.293Z,12.83
2023-04-12T13:20:53.692Z,12.94
2023-04-12T13:23:20.172Z,12.97
2023-04-12T13:25:56.613Z,12.95
2023-04-12T13:28:22.986Z,12.90
2023-04-12T13:30:49.743Z,12.87
2023-04-12T13:33:27.301Z,12.82
2023-04-12T13:35:53.698Z,12.93
2023-04-12T13:38:20.254Z,12.88
2023-04-12T13:40:46.719Z,12.89
2023-04-12T13:43:13.179Z,12.85
2023-04-12T13:45:56.702Z,12.77
2023-04-12T13:48:24.017Z,12.70
2023-04-12T13:50:51.908Z,12.69
2023-04-12T13:53:19.302Z,12.73
2023-04-12T13:56:01.142Z,12.78
2023-04-12T13:58:57.373Z,12.78
2023-04-12T14:01:28.116Z,12.67
2023-04-12T14:04:05.924Z,12.70
2023-04-12T14:06:37.171Z,12.77
2023-04-12T14:09:49.480Z,12.87
2023-04-12T14:12:47.029Z,12.86
2023-04-12T14:15:13.869Z,12.65
2023-04-12T14:17:40.513Z,12.60
2023-04-12T14:20:19.200Z,12.56
2023-04-12T14:22:45.995Z,12.29
2023-04-12T14:25:13.495Z,12.10
2023-04-12T14:27:41.031Z,11.95
2023-04-12T14:30:08.314Z,11.79
2023-04-12T14:32:34.755Z,11.72
2023-04-12T14:35:01.198Z,11.72
2023-04-12T14:37:27.655Z,11.61
2023-04-12T14:40:14.971Z,11.59
2023-04-12T14:42:41.594Z,11.63
2023-04-12T14:45:09.517Z,11.67
2023-04-12T14:47:41.440Z,11.67
2023-04-12T14:50:16.288Z,11.72
2023-04-12T14:52:42.667Z,11.93
2023-04-12T14:55:10.640Z,12.06
2023-04-12T14:57:51.282Z,12.20
2023-04-12T15:00:18.068Z,12.29
2023-04-12T15:02:47.487Z,12.28
2023-04-12T15:05:17.311Z,12.30
2023-04-12T15:07:46.515Z,12.25
2023-04-12T15:10:14.239Z,12.43
2023-04-12T15:12:40.727Z,12.41
2023-04-12T15:15:09.673Z,12.33
2023-04-12T15:17:36.407Z,12.31
2023-04-12T15:20:13.006Z,12.31
2023-04-12T15:22:40.411Z,12.21
2023-04-12T15:25:07.699Z,12.21
2023-04-12T15:27:34.171Z,12.18
2023-04-12T15:30:02.059Z,12.08
2023-04-12T15:32:29.839Z,12.09
2023-04-12T15:34:56.274Z,12.17
2023-04-12T15:37:23.161Z,12.19
2023-04-12T15:39:50.016Z,12.27
2023-04-12T15:42:16.763Z,12.23
2023-04-12T15:44:43.266Z,12.14
2023-04-12T15:47:11.880Z,12.02
2023-04-12T15:49:39.726Z,12.07
2023-04-12T15:52:06.103Z,12.21
2023-04-12T15:54:32.532Z,12.28
2023-04-12T15:56:59.845Z,12.30
2023-04-12T15:59:27.876Z,12.35
2023-04-12T16:01:56.082Z,12.44
2023-04-12T16:04:22.586Z,12.43
2023-04-12T16:06:49.165Z,12.45
2023-04-12T16:09:16.736Z,12.37
2023-04-12T16:11:43.848Z,12.29
2023-04-12T16:14:10.614Z,12.18
2023-04-12T16:16:40.311Z,12.10
2023-04-12T16:19:08.355Z,11.92
2023-04-12T16:21:35.263Z,11.80
2023-04-12T16:24:01.744Z,11.76
2023-04-12T16:26:28.394Z,11.67
2023-04-12T16:28:54.981Z,11.65
2023-04-12T16:31:21.886Z,11.62
2023-04-12T16:33:49.713Z,11.58
2023-04-12T16:36:16.542Z,11.50
2023-04-12T16:38:45.516Z,11.42
2023-04-12T16:41:12.254Z,11.32
2023-04-12T16:43:38.636Z,11.26
2023-04-12T16:46:08.802Z,11.23
2023-04-12T16:48:38.454Z,11.23
2023-04-12T16:51:05.287Z,11.16
2023-04-12T16:53:31.759Z,11.08
2023-04-12T16:56:01.841Z,11.01
2023-04-12T16:58:28.847Z,10.89
2023-04-12T17:00:56.023Z,10.86
2023-04-12T17:03:24.232Z,10.78
2023-04-12T17:05:51.069Z,10.72
2023-04-12T17:08:17.527Z,10.67
2023-04-12T17:10:44.034Z,10.60
2023-04-12T17:13:10.597Z,10.50
2023-04-12T17:15:37.151Z,10.45
2023-04-12T17:18:06.260Z,10.36
2023-04-12T17:20:33.595Z,10.32
2023-04-12T17:23:00.248Z,10.28
2023-04-12T17:25:31.164Z,10.24
2023-04-12T17:27:59.275Z,10.16
2023-04-12T17:30:25.665Z,10.17
2023-04-12T17:32:53.305Z,10.19
2023-04-12T17:35:20.418Z,10.17
2023-04-12T17:37:47.376Z,10.13
2023-04-12T17:40:15.254Z,10.08
2023-04-12T17:42:43.319Z,10.10
2023-04-12T17:45:12.532Z,10.18
2023-04-12T17:47:39.971Z,10.22
2023-04-12T17:50:08.218Z,10.11
2023-04-12T17:52:34.710Z,10.00
2023-04-12T17:55:01.262Z,9.92
2023-04-12T17:57:27.697Z,9.87
2023-04-12T17:59:54.081Z,9.80
2023-04-12T18:02:20.704Z,9.76
2023-04-12T18:04:48.297Z,9.74
2023-04-12T18:07:16.584Z,9.62
2023-04-12T18:09:44.867Z,9.50
2023-04-12T18:12:11.811Z,9.50
2023-04-12T18:14:40.383Z,9.48
2023-04-12T18:17:07.451Z,9.42
2023-04-12T18:19:34.100Z,9.34
2023-04-12T18:22:00.479Z,9.29
2023-04-12T18:24:26.954Z,9.26
2023-04-12T18:26:53.360Z,9.22
2023-04-12T18:29:19.733Z,9.18
2023-04-12T18:31:46.473Z,9.15
2023-04-12T18:34:13.928Z,9.11
2023-04-12T18:36:42.264Z,9.02
2023-04-12T18:39:08.870Z,9.03
2023-04-12T18:41:35.802Z,9.00
2023-04-12T18:44:02.801Z,9.01
2023-04-12T18:46:29.649Z,8.96
2023-04-12T18:48:56.490Z,8.94
2023-04-12T18:51:23.138Z,8.91
2023-04-12T18:53:51.134Z,8.88
2023-04-12T18:56:23.039Z,8.86
2023-04-12T18:58:55.642Z,8.78
2023-04-12T19:01:23.164Z,8.74
2023-04-12T19:03:49.823Z,8.73
2023-04-12T19:06:16.944Z,8.68
2023-04-12T19:08:45.606Z,8.69
2023-04-12T19:11:36.718Z,8.67
2023-04-12T19:14:08.694Z,8.64
2023-04-12T19:16:36.091Z,8.63
2023-04-12T19:19:02.665Z,8.57
2023-04-12T19:21:36.298Z,8.56
2023-04-12T19:24:02.732Z,8.53
2023-04-12T19:26:30.243Z,8.53
2023-04-12T19:29:02.584Z,8.40
2023-04-12T19:31:43.226Z,8.36
2023-04-12T19:34:11.889Z,8.28
2023-04-12T19:36:38.299Z,8.30
2023-04-12T19:39:04.700Z,8.26
2023-04-12T19:41:31.390Z,8.19
2023-04-12T19:44:00.136Z,8.21
2023-04-12T19:46:38.909Z,8.19
2023-04-12T19:49:05.571Z,8.17
2023-04-12T19:52:07.471Z,8.09
2023-04-12T19:54:33.886Z,8.09
2023-04-12T19:57:00.470Z,8.07
2023-04-12T19:59:30.759Z,8.12
2023-04-12T20:01:58.266Z,8.12
2023-04-12T20:04:24.931Z,8.09
2023-04-12T20:07:00.436Z,8.11
2023-04-12T20:09:26.808Z,8.07
2023-04-12T20:11:53.197Z,8.02
2023-04-12T20:14:19.766Z,8.03
2023-04-12T20:16:49.808Z,8.01
2023-04-12T20:19:16.450Z,7.91
2023-04-12T20:21:44.138Z,7.91
2023-04-12T20:24:12.337Z,7.91
2023-04-12T20:26:46.512Z,7.89
2023-04-12T20:29:13.119Z,7.93
2023-04-12T20:31:39.603Z,7.87
2023-04-12T20:34:17.610Z,7.93
2023-04-12T20:36:43.968Z,7.92
2023-04-12T20:39:10.438Z,7.85
2023-04-12T20:41:38.401Z,7.85
2023-04-12T20:44:04.879Z,7.86
2023-04-12T20:46:31.342Z,7.84
2023-04-12T20:48:58.191Z,7.85
2023-04-12T20:51:24.833Z,7.83
2023-04-12T20:53:51.630Z,7.84
2023-04-12T20:56:18.880Z,7.83
2023-04-12T20:58:49.783Z,7.82
2023-04-12T21:01:16.301Z,7.76
2023-04-12T21:03:43.400Z,7.78
2023-04-12T21:06:10.701Z,7.82
2023-04-12T21:08:38.902Z,7.83
2023-04-12T21:11:06.041Z,7.80
2023-04-12T21:13:33.424Z,7.74
2023-04-12T21:16:02.282Z,7.75
2023-04-12T21:18:41.215Z,7.76
2023-04-12T21:21:07.578Z,7.76
2023-04-12T21:23:34.224Z,7.74
2023-04-12T21:26:02.419Z,7.72
2023-04-12T21:28:29.795Z,7.72
2023-04-12T21:30:58.204Z,7.76
2023-04-12T21:33:25.023Z,7.73
2023-04-12T21:35:55.602Z,7.73
2023-04-12T21:38:22.818Z,7.73
2023-04-12T21:40:49.491Z,7.75
2023-04-12T21:43:16.251Z,7.70
2023-04-12T21:45:42.725Z,7.67
2023-04-12T21:48:09.180Z,7.66
2023-04-12T21:50:35.810Z,7.69
2023-04-12T21:53:02.156Z,7.71
2023-04-12T21:55:28.561Z,7.74
2023-04-12T21:57:54.998Z,7.74
2023-04-12T22:00:23.740Z,7.76
2023-04-12T22:02:50.564Z,7.78
2023-04-12T22:05:17.119Z,7.77
2023-04-12T22:07:43.490Z,7.78
2023-04-12T22:10:11.978Z,7.76
2023-04-12T22:12:39.448Z,7.80
2023-04-12T22:15:07.399Z,7.82
2023-04-12T22:17:34.277Z,7.85
2023-04-12T22:20:01.001Z,7.85
2023-04-12T22:22:29.126Z,7.86
2023-04-12T22:24:56.607Z,7.88
2023-04-12T22:27:26.752Z,7.91
2023-04-12T22:29:53.663Z,7.92
2023-04-12T22:32:20.144Z,7.86
2023-04-12T22:34:48.355Z,7.73
2023-04-12T22:37:16.593Z,7.61
2023-04-12T22:39:43.045Z,7.56
2023-04-12T22:42:09.428Z,7.49
2023-04-12T22:44:38.362Z,7.48
2023-04-12T22:47:07.269Z,7.49
2023-04-12T22:49:44.753Z,7.43
2023-04-12T22:52:11.089Z,7.43
2023-04-12T22:54:38.799Z,7.39
2023-04-12T22:57:06.238Z,7.31
2023-04-12T22:59:33.182Z,7.30
2023-04-12T23:01:59.651Z,7.28
2023-04-12T23:04:26.196Z,7.21
2023-04-12T23:06:55.200Z,7.13
2023-04-12T23:09:21.634Z,7.08
2023-04-12T23:11:48.531Z,7.08
2023-04-12T23:14:17.603Z,7.05
2023-04-12T23:16:46.226Z,7.05
2023-04-12T23:19:16.559Z,7.04
2023-04-12T23:21:43.828Z,6.98
2023-04-12T23:24:15.614Z,6.97
2023-04-12T23:26:43.818Z,6.95
2023-04-12T23:29:11.335Z,6.90
2023-04-12T23:31:38.045Z,6.91
2023-04-12T23:34:06.083Z,6.93
2023-04-12T23:36:33.810Z,6.91
2023-04-12T23:39:00.526Z,6.87
2023-04-12T23:41:27.737Z,6.92
2023-04-12T23:43:54.145Z,6.94
2023-04-12T23:46:23.755Z,6.90
2023-04-12T23:48:50.123Z,6.89
2023-04-12T23:51:16.659Z,6.90
2023-04-12T23:53:43.138Z,6.86
2023-04-12T23:56:09.912Z,6.89
2023-04-12T23:58:36.661Z,6.86
